createdAt,value
2023-01-11T00:00:57.713Z,77.00
2023-01-11T00:03:26.357Z,76.80
2023-01-11T00:05:58.320Z,76.80
2023-01-11T00:08:27.825Z,76.60
2023-01-11T00:10:56.903Z,76.50
2023-01-11T00:13:25.161Z,76.50
2023-01-11T00:15:53.904Z,76.60
2023-01-11T00:18:22.488Z,76.70
2023-01-11T00:20:51.047Z,76.90
2023-01-11T00:23:21.036Z,76.90
2023-01-11T00:25:49.142Z,77.20
2023-01-11T00:28:17.731Z,77.30
2023-01-11T00:30:45.883Z,77.50
2023-01-11T00:33:14.517Z,77.90
2023-01-11T00:35:42.705Z,77.80
2023-01-11T00:38:31.312Z,78.00
2023-01-11T00:41:21.270Z,78.10
2023-01-11T00:44:07.079Z,78.30
2023-01-11T00:46:53.113Z,78.40
2023-01-11T00:49:21.328Z,78.60
2023-01-11T00:51:49.897Z,78.80
2023-01-11T00:54:18.456Z,78.90
2023-01-11T00:56:48.463Z,79.20
2023-01-11T00:59:16.603Z,79.40
2023-01-11T01:01:44.997Z,79.30
2023-01-11T01:04:13.166Z,79.60
2023-01-11T01:06:41.296Z,79.80
2023-01-11T01:09:10.026Z,80.00
2023-01-11T01:11:38.626Z,80.90
2023-01-11T01:14:25.757Z,80.20
2023-01-11T01:16:54.439Z,80.30
2023-01-11T01:19:23.548Z,80.30
2023-01-11T01:21:52.323Z,80.30
2023-01-11T01:24:20.928Z,80.40
2023-01-11T01:26:49.257Z,80.30
2023-01-11T01:29:19.346Z,80.40
2023-01-11T01:31:47.920Z,80.40
2023-01-11T01:34:16.016Z,80.40
2023-01-11T01:36:45.070Z,80.30
2023-01-11T01:39:13.787Z,80.50
2023-01-11T01:41:42.002Z,80.50
2023-01-11T01:44:40.290Z,80.50
2023-01-11T01:47:10.646Z,80.70
2023-01-11T01:49:39.428Z,80.50
2023-01-11T01:52:08.177Z,80.50
2023-01-11T01:54:42.384Z,80.60
2023-01-11T01:57:15.781Z,80.70
2023-01-11T01:59:44.080Z,80.60
2023-01-11T02:02:14.036Z,80.60
2023-01-11T02:04:45.821Z,80.70
2023-01-11T02:07:17.508Z,80.80
2023-01-11T02:09:50.209Z,80.80
2023-01-11T02:12:19.399Z,80.80
2023-01-11T02:14:49.397Z,80.90
2023-01-11T02:17:19.587Z,80.90
2023-01-11T02:19:56.864Z,80.70
2023-01-11T02:23:08.828Z,80.70
2023-01-11T02:26:07.039Z,80.80
2023-01-11T02:28:42.847Z,80.80
2023-01-11T02:31:23.067Z,80.70
2023-01-11T02:33:59.171Z,80.70
2023-01-11T02:36:44.934Z,80.60
2023-01-11T02:39:18.608Z,80.70
2023-01-11T02:42:11.613Z,80.70
2023-01-11T02:45:04.540Z,80.70
2023-01-11T02:51:16.990Z,80.90
2023-01-11T02:53:48.891Z,80.80
2023-01-11T02:56:22.086Z,80.80
2023-01-11T02:58:53.130Z,80.90
2023-01-11T03:01:24.001Z,80.90
2023-01-11T03:03:52.959Z,80.90
2023-01-11T03:06:24.003Z,80.90
2023-01-11T03:09:16.278Z,80.90
2023-01-11T03:12:23.657Z,80.90
2023-01-11T03:15:04.968Z,80.80
2023-01-11T03:17:46.189Z,80.70
2023-01-11T03:20:21.857Z,80.80
2023-01-11T03:23:05.978Z,80.90
2023-01-11T03:25:42.424Z,81.00
2023-01-11T03:28:18.502Z,80.90
2023-01-11T03:30:50.771Z,80.90
2023-01-11T03:33:24.586Z,80.90
2023-01-11T03:36:02.027Z,81.00
2023-01-11T03:38:34.788Z,81.10
2023-01-11T03:41:05.391Z,81.00
2023-01-11T03:43:37.107Z,80.90
2023-01-11T03:46:10.320Z,80.80
2023-01-11T03:48:44.406Z,80.90
2023-01-11T03:51:17.713Z,80.90
2023-01-11T03:53:51.186Z,81.00
2023-01-11T03:56:24.348Z,80.90
2023-01-11T03:58:52.973Z,80.90
2023-01-11T04:01:21.764Z,80.80
2023-01-11T04:03:51.237Z,80.90
2023-01-11T04:06:21.014Z,80.90
2023-01-11T04:08:49.376Z,80.90
2023-01-11T04:11:17.981Z,81.00
2023-01-11T04:13:46.078Z,81.00
2023-01-11T04:16:14.735Z,81.10
2023-01-11T04:18:42.880Z,81.10
2023-01-11T04:21:12.385Z,81.30
2023-01-11T04:23:41.059Z,81.20
2023-01-11T04:26:09.661Z,81.20
2023-01-11T04:28:37.763Z,81.10
2023-01-11T04:31:06.716Z,81.20
2023-01-11T04:33:34.812Z,81.30
2023-01-11T04:36:06.856Z,81.40
2023-01-11T04:38:37.020Z,81.40
2023-01-11T04:41:31.875Z,81.60
2023-01-11T04:44:00.127Z,81.40
2023-01-11T04:46:28.931Z,81.50
2023-01-11T04:48:57.457Z,81.50
2023-01-11T04:51:26.220Z,81.60
2023-01-11T04:53:55.694Z,81.60
2023-01-11T04:56:24.301Z,81.50
2023-01-11T05:02:03.005Z,81.80
2023-01-11T05:04:31.143Z,81.70
2023-01-11T05:06:59.763Z,81.70
2023-01-11T05:09:29.735Z,81.70
2023-01-11T05:11:57.879Z,81.60
2023-01-11T05:14:26.476Z,81.70
2023-01-11T05:16:54.617Z,81.70
2023-01-11T05:19:22.782Z,81.80
2023-01-11T05:21:51.390Z,81.90
2023-01-11T05:24:19.647Z,81.90
2023-01-11T05:26:50.269Z,81.80
2023-01-11T05:29:20.496Z,81.80
2023-01-11T05:31:48.640Z,81.60
2023-01-11T05:34:18.590Z,81.70
2023-01-11T05:36:46.792Z,81.80
2023-01-11T05:39:16.198Z,81.70
2023-01-11T05:41:44.415Z,81.80
2023-01-11T05:44:32.306Z,81.70
2023-01-11T05:47:00.554Z,81.70
2023-01-11T05:49:28.683Z,81.60
2023-01-11T05:51:57.292Z,81.60
2023-01-11T05:54:25.412Z,81.60
2023-01-11T05:56:57.695Z,81.60
2023-01-11T05:59:27.286Z,81.60
2023-01-11T06:01:55.457Z,81.60
2023-01-11T06:04:23.990Z,81.50
2023-01-11T06:06:52.112Z,81.60
2023-01-11T06:09:20.704Z,81.70
2023-01-11T06:11:51.023Z,81.70
2023-01-11T06:14:19.101Z,81.70
2023-01-11T06:16:49.049Z,81.70
2023-01-11T06:19:17.341Z,81.70
2023-01-11T06:21:45.918Z,81.70
2023-01-11T06:24:14.007Z,81.70
2023-01-11T06:26:42.153Z,81.70
2023-01-11T06:29:11.559Z,81.90
2023-01-11T06:31:41.803Z,81.80
2023-01-11T06:34:11.773Z,81.80
2023-01-11T06:36:40.467Z,81.90
2023-01-11T06:39:08.548Z,81.90
2023-01-11T06:41:37.113Z,82.10
2023-01-11T06:44:06.139Z,82.10
2023-01-11T06:46:34.710Z,82.10
2023-01-11T06:49:03.857Z,81.90
2023-01-11T06:51:33.792Z,82.00
2023-01-11T06:54:01.932Z,82.00
2023-01-11T06:56:30.018Z,81.90
2023-01-11T06:58:58.101Z,82.00
2023-01-11T07:01:26.651Z,82.20
2023-01-11T07:03:55.491Z,82.00
2023-01-11T07:06:24.275Z,81.90
2023-01-11T07:08:54.252Z,82.10
2023-01-11T07:11:22.349Z,82.00
2023-01-11T07:13:50.887Z,82.10
2023-01-11T07:16:19.514Z,81.90
2023-01-11T07:18:47.713Z,82.00
2023-01-11T07:21:16.328Z,82.10
2023-01-11T07:23:44.416Z,82.10
2023-01-11T07:26:17.763Z,82.10
2023-01-11T07:28:46.463Z,82.10
2023-01-11T07:31:15.079Z,81.90
2023-01-11T07:33:43.220Z,81.90
2023-01-11T07:36:11.907Z,81.70
2023-01-11T07:38:39.994Z,81.80
2023-01-11T07:41:22.486Z,81.70
2023-01-11T07:43:51.946Z,81.70
2023-01-11T07:46:20.596Z,81.80
2023-01-11T07:48:49.286Z,81.70
2023-01-11T07:51:20.496Z,81.70
2023-01-11T07:53:49.185Z,81.60
2023-01-11T07:56:18.047Z,81.60
2023-01-11T07:58:46.668Z,81.70
2023-01-11T08:01:16.252Z,81.50
2023-01-11T08:03:44.413Z,81.40
2023-01-11T08:06:15.035Z,81.50
2023-01-11T08:08:43.296Z,81.60
2023-01-11T08:11:31.124Z,81.50
2023-01-11T08:14:16.817Z,81.70
2023-01-11T08:16:46.811Z,81.70
2023-01-11T08:19:14.905Z,81.60
2023-01-11T08:21:44.937Z,81.60
2023-01-11T08:24:13.090Z,81.70
2023-01-11T08:26:41.674Z,81.80
2023-01-11T08:29:10.014Z,81.70
2023-01-11T08:31:38.608Z,81.80
2023-01-11T08:34:08.627Z,81.90
2023-01-11T08:36:36.754Z,81.70
2023-01-11T08:39:05.548Z,81.60
2023-01-11T08:41:33.773Z,81.60
2023-01-11T08:44:02.869Z,81.60
2023-01-11T08:46:33.825Z,81.70
2023-01-11T08:49:02.853Z,81.50
2023-01-11T08:51:33.254Z,81.40
2023-01-11T08:54:01.359Z,81.40
2023-01-11T08:56:29.487Z,81.40
2023-01-11T08:58:57.551Z,81.30
2023-01-11T09:01:25.645Z,81.30
2023-01-11T09:03:54.298Z,81.40
2023-01-11T09:06:22.624Z,81.30
2023-01-11T09:08:52.845Z,81.30
2023-01-11T09:11:38.676Z,81.30
2023-01-11T09:14:07.269Z,81.20
2023-01-11T09:16:36.051Z,81.30
2023-01-11T09:19:04.221Z,81.20
2023-01-11T09:21:33.049Z,81.10
2023-01-11T09:24:03.673Z,81.10
2023-01-11T09:26:31.896Z,82.10
2023-01-11T09:29:00.611Z,81.30
2023-01-11T09:31:29.305Z,81.20
2023-01-11T09:33:58.016Z,81.20
2023-01-11T09:36:28.412Z,81.30
2023-01-11T09:39:00.387Z,81.30
2023-01-11T09:41:42.906Z,81.30
2023-01-11T09:44:18.955Z,81.40
2023-01-11T09:46:51.762Z,81.40
2023-01-11T09:49:23.771Z,81.40
2023-01-11T09:51:53.990Z,81.40
2023-01-11T09:54:26.044Z,81.50
2023-01-11T09:57:07.385Z,81.50
2023-01-11T09:59:45.101Z,81.50
2023-01-11T10:02:29.393Z,81.50
2023-01-11T10:05:30.185Z,81.40
2023-01-11T10:18:31.009Z,81.10
2023-01-11T10:18:37.346Z,81.10
2023-01-11T10:19:57.980Z,81.10
2023-01-11T10:22:33.228Z,81.10
2023-01-11T10:25:11.871Z,81.10
2023-01-11T10:27:43.142Z,81.90
2023-01-11T10:30:48.916Z,81.00
2023-01-11T10:33:34.303Z,81.00
2023-01-11T10:36:28.675Z,81.00
2023-01-11T10:39:15.776Z,81.00
2023-01-11T10:41:55.621Z,80.90
2023-01-11T10:44:31.476Z,80.90
2023-01-11T10:47:04.117Z,80.90
2023-01-11T10:49:44.565Z,80.90
2023-01-11T10:52:26.413Z,81.00
2023-01-11T10:54:57.325Z,81.00
2023-01-11T10:57:39.129Z,80.90
2023-01-11T11:00:37.969Z,81.10
2023-01-11T11:03:38.746Z,80.90
2023-01-11T11:06:15.195Z,80.90
2023-01-11T11:08:49.921Z,80.90
2023-01-11T11:11:23.915Z,81.00
2023-01-11T11:14:00.626Z,81.00
2023-01-11T11:16:45.250Z,81.10
2023-01-11T11:19:21.232Z,81.20
2023-01-11T11:21:52.770Z,81.20
2023-01-11T11:24:27.628Z,81.50
2023-01-11T11:26:59.233Z,81.50
2023-01-11T11:29:30.682Z,81.60
2023-01-11T11:32:01.349Z,81.60
2023-01-11T11:34:31.157Z,81.70
2023-01-11T11:37:02.070Z,81.70
2023-01-11T11:39:32.665Z,81.80
2023-01-11T11:42:07.717Z,81.90
2023-01-11T11:44:36.850Z,82.20
2023-01-11T11:47:07.532Z,82.00
2023-01-11T11:49:38.398Z,82.10
2023-01-11T11:52:07.988Z,82.20
2023-01-11T11:54:41.037Z,82.20
2023-01-11T11:57:25.136Z,82.20
2023-01-11T12:00:03.630Z,82.40
2023-01-11T12:02:34.707Z,82.50
2023-01-11T12:05:08.724Z,82.60
2023-01-11T12:07:53.434Z,82.70
2023-01-11T12:10:24.945Z,82.70
2023-01-11T12:12:56.538Z,82.80
2023-01-11T12:15:27.281Z,82.90
2023-01-11T12:17:56.311Z,82.90
2023-01-11T12:20:42.343Z,82.90
2023-01-11T12:23:17.287Z,83.00
2023-01-11T12:26:18.789Z,82.90
2023-01-11T12:29:16.638Z,83.30
2023-01-11T12:31:57.066Z,83.20
2023-01-11T12:34:38.095Z,83.10
2023-01-11T12:37:20.278Z,83.20
2023-01-11T12:39:54.903Z,83.30
2023-01-11T12:42:43.325Z,83.40
2023-01-11T12:45:21.639Z,83.70
2023-01-11T12:48:29.147Z,83.50
2023-01-11T12:51:10.827Z,84.10
2023-01-11T12:54:01.599Z,83.90
2023-01-11T12:57:08.258Z,83.90
2023-01-11T13:00:06.126Z,84.40
2023-01-11T13:03:01.597Z,84.40
2023-01-11T13:05:38.799Z,84.30
2023-01-11T13:08:14.083Z,84.10
2023-01-11T13:10:58.393Z,84.60
2023-01-11T13:13:35.568Z,84.80
2023-01-11T13:16:14.545Z,84.40
2023-01-11T13:18:48.513Z,84.60
2023-01-11T13:21:26.170Z,84.60
2023-01-11T13:23:58.273Z,84.60
2023-01-11T13:26:31.348Z,84.70
2023-01-11T13:29:06.940Z,84.80
2023-01-11T13:31:36.729Z,85.10
2023-01-11T13:34:09.027Z,85.10
2023-01-11T13:36:41.915Z,85.20
2023-01-11T13:39:18.213Z,85.20
2023-01-11T13:41:50.545Z,85.30
2023-01-11T13:44:24.217Z,85.40
2023-01-11T13:47:04.215Z,85.70
2023-01-11T13:49:51.801Z,85.90
2023-01-11T13:52:26.545Z,85.90
2023-01-11T13:55:01.874Z,85.70
2023-01-11T13:57:42.503Z,85.90
2023-01-11T14:00:21.514Z,86.00
2023-01-11T14:02:56.056Z,86.00
2023-01-11T14:05:25.078Z,85.90
2023-01-11T14:08:04.379Z,85.90
2023-01-11T14:10:47.955Z,86.40
2023-01-11T14:14:04.728Z,86.50
2023-01-11T14:16:44.670Z,86.40
2023-01-11T14:19:21.909Z,86.60
2023-01-11T14:22:01.120Z,86.50
2023-01-11T14:24:33.159Z,86.90
2023-01-11T14:27:21.554Z,86.90
2023-01-11T14:30:10.334Z,87.70
2023-01-11T14:33:14.879Z,87.60
2023-01-11T14:36:13.083Z,87.20
2023-01-11T14:39:10.259Z,87.00
2023-01-11T14:42:05.789Z,86.60
2023-01-11T14:44:57.686Z,86.70
2023-01-11T14:47:49.446Z,86.70
2023-01-11T14:50:28.999Z,86.80
2023-01-11T14:53:01.798Z,86.40
2023-01-11T14:55:34.899Z,86.30
2023-01-11T14:58:06.297Z,86.40
2023-01-11T15:01:14.318Z,86.50
2023-01-11T15:03:49.744Z,86.80
2023-01-11T15:06:21.976Z,86.60
2023-01-11T15:08:56.265Z,86.30
2023-01-11T15:11:36.984Z,86.30
2023-01-11T15:14:16.629Z,86.40
2023-01-11T15:17:08.645Z,86.30
2023-01-11T15:19:41.699Z,86.50
2023-01-11T15:22:27.692Z,86.40
2023-01-11T15:25:01.788Z,86.20
2023-01-11T15:27:35.265Z,86.30
2023-01-11T15:30:05.041Z,86.40
2023-01-11T15:32:35.809Z,86.50
2023-01-11T15:35:33.626Z,86.40
2023-01-11T15:38:21.057Z,86.60
2023-01-11T15:40:50.740Z,86.60
2023-01-11T15:43:52.803Z,86.50
2023-01-11T15:47:12.430Z,87.00
2023-01-11T15:50:14.392Z,86.80
2023-01-11T15:53:18.118Z,87.00
2023-01-11T15:56:24.103Z,86.60
2023-01-11T15:59:21.685Z,86.60
2023-01-11T16:02:12.167Z,86.60
2023-01-11T16:04:44.711Z,86.60
2023-01-11T16:07:19.776Z,86.60
2023-01-11T16:10:19.839Z,86.80
2023-01-11T16:13:00.163Z,87.20
2023-01-11T16:15:55.752Z,87.10
2023-01-11T16:18:28.313Z,86.40
2023-01-11T16:21:03.007Z,86.80
2023-01-11T16:23:33.315Z,86.80
2023-01-11T16:26:04.949Z,86.80
2023-01-11T16:28:33.605Z,86.90
2023-01-11T16:31:04.496Z,87.10
2023-01-11T16:33:34.483Z,87.80
2023-01-11T16:36:13.129Z,87.00
2023-01-11T16:38:50.885Z,87.20
2023-01-11T16:41:22.102Z,87.20
2023-01-11T16:43:55.284Z,87.00
2023-01-11T16:47:14.614Z,87.10
2023-01-11T16:49:48.757Z,87.20
2023-01-11T16:52:39.484Z,86.90
2023-01-11T16:55:23.559Z,87.50
2023-01-11T16:57:57.990Z,87.20
2023-01-11T17:00:33.032Z,87.00
2023-01-11T17:03:05.644Z,86.90
2023-01-11T17:05:34.284Z,86.90
2023-01-11T17:08:09.960Z,86.90
2023-01-11T17:10:38.869Z,86.90
2023-01-11T17:13:43.747Z,86.90
2023-01-11T17:16:15.968Z,87.10
2023-01-11T17:18:44.779Z,86.80
2023-01-11T17:21:20.229Z,86.80
2023-01-11T17:23:50.603Z,87.00
2023-01-11T17:26:23.731Z,87.00
2023-01-11T17:28:57.373Z,87.00
2023-01-11T17:31:29.073Z,87.00
2023-01-11T17:34:05.836Z,87.00
2023-01-11T17:36:34.268Z,87.10
2023-01-11T17:39:05.066Z,86.90
2023-01-11T17:41:51.340Z,87.00
2023-01-11T17:44:41.375Z,86.90
2023-01-11T17:47:13.793Z,86.90
2023-01-11T17:49:41.927Z,86.80
2023-01-11T17:52:12.451Z,86.70
2023-01-11T17:54:41.045Z,86.80
2023-01-11T17:57:12.239Z,86.90
2023-01-11T17:59:42.790Z,86.80
2023-01-11T18:02:14.973Z,86.80
2023-01-11T18:04:43.936Z,87.00
2023-01-11T18:07:17.765Z,86.80
2023-01-11T18:09:48.108Z,86.80
2023-01-11T18:12:19.493Z,86.80
2023-01-11T18:14:52.519Z,86.80
2023-01-11T18:17:39.043Z,86.80
2023-01-11T18:20:37.602Z,86.80
2023-01-11T18:23:18.998Z,86.80
2023-01-11T18:25:48.330Z,86.60
2023-01-11T18:28:38.200Z,86.60
2023-01-11T18:31:07.807Z,86.60
2023-01-11T18:33:35.935Z,86.40
2023-01-11T18:36:05.439Z,86.40
2023-01-11T18:38:34.891Z,86.50
2023-01-11T18:41:21.582Z,86.40
2023-01-11T18:43:50.193Z,86.40
2023-01-11T18:46:22.976Z,86.20
2023-01-11T18:48:51.792Z,86.20
2023-01-11T18:51:23.420Z,86.20
2023-01-11T18:53:51.519Z,86.20
2023-01-11T18:56:20.086Z,86.10
2023-01-11T18:58:48.655Z,86.10
2023-01-11T19:01:17.125Z,85.90
2023-01-11T19:03:46.904Z,85.90
2023-01-11T19:06:16.559Z,86.00
2023-01-11T19:08:45.158Z,85.90
2023-01-11T19:11:17.076Z,85.90
2023-01-11T19:13:58.062Z,85.80
2023-01-11T19:16:37.941Z,85.90
2023-01-11T19:19:08.471Z,85.70
2023-01-11T19:21:40.266Z,85.50
2023-01-11T19:24:09.217Z,85.50
2023-01-11T19:26:37.726Z,85.60
2023-01-11T19:29:06.503Z,85.50
2023-01-11T19:31:34.666Z,85.40
2023-01-11T19:34:03.369Z,85.30
2023-01-11T19:36:33.031Z,85.30
2023-01-11T19:39:01.646Z,85.30
2023-01-11T19:41:49.780Z,85.30
2023-01-11T19:44:19.578Z,85.10
2023-01-11T19:46:56.688Z,85.10
2023-01-11T19:49:25.291Z,85.10
2023-01-11T19:51:55.495Z,85.00
2023-01-11T19:54:25.044Z,85.00
2023-01-11T19:56:53.754Z,84.90
2023-01-11T19:59:22.374Z,84.80
2023-01-11T20:01:51.180Z,84.90
2023-01-11T20:04:21.407Z,85.00
2023-01-11T20:06:52.051Z,85.00
2023-01-11T20:09:22.953Z,84.90
2023-01-11T20:11:51.118Z,84.90
2023-01-11T20:14:19.808Z,84.90
2023-01-11T20:16:48.499Z,85.00
2023-01-11T20:19:16.592Z,84.90
2023-01-11T20:21:44.806Z,84.90
2023-01-11T20:24:14.816Z,84.90
2023-01-11T20:26:45.585Z,84.90
2023-01-11T20:29:14.970Z,84.70
2023-01-11T20:31:43.050Z,84.70
2023-01-11T20:34:13.835Z,84.60
2023-01-11T20:36:43.044Z,84.60
2023-01-11T20:39:11.651Z,84.50
2023-01-11T20:41:49.224Z,84.60
2023-01-11T20:44:20.435Z,84.60
2023-01-11T20:46:49.924Z,84.70
2023-01-11T20:49:19.002Z,84.60
2023-01-11T20:51:47.749Z,84.60
2023-01-11T20:54:17.126Z,84.40
2023-01-11T20:56:46.545Z,84.40
2023-01-11T20:59:16.514Z,85.30
2023-01-11T21:01:46.685Z,84.30
2023-01-11T21:04:15.355Z,84.30
2023-01-11T21:06:46.850Z,84.30
2023-01-11T21:09:16.830Z,84.20
2023-01-11T21:11:52.846Z,84.20
2023-01-11T21:14:21.334Z,84.10
2023-01-11T21:16:51.294Z,84.00
2023-01-11T21:19:20.132Z,83.80
2023-01-11T21:21:49.720Z,83.80
2023-01-11T21:24:18.455Z,83.70
2023-01-11T21:26:48.118Z,83.60
2023-01-11T21:29:16.303Z,83.40
2023-01-11T21:31:44.532Z,83.30
2023-01-11T21:34:14.682Z,83.20
2023-01-11T21:36:44.936Z,83.10
2023-01-11T21:39:15.262Z,82.90
2023-01-11T21:41:56.118Z,82.70
2023-01-11T21:44:28.123Z,82.70
2023-01-11T21:46:56.477Z,82.40
2023-01-11T21:49:26.480Z,82.50
2023-01-11T21:51:54.818Z,82.30
2023-01-11T21:54:23.012Z,82.50
2023-01-11T21:56:52.316Z,82.40
2023-01-11T21:59:21.492Z,82.60
2023-01-11T22:01:49.973Z,82.70
2023-01-11T22:04:20.272Z,82.70
2023-01-11T22:06:54.365Z,82.50
2023-01-11T22:09:24.981Z,82.60
2023-01-11T22:11:53.100Z,82.30
2023-01-11T22:14:21.256Z,82.00
2023-01-11T22:16:49.402Z,82.00
2023-01-11T22:19:18.539Z,81.80
2023-01-11T22:21:47.180Z,82.00
2023-01-11T22:24:17.839Z,81.90
2023-01-11T22:26:46.846Z,82.00
2023-01-11T22:29:17.867Z,82.20
2023-01-11T22:31:49.406Z,82.20
2023-01-11T22:34:18.265Z,82.10
2023-01-11T22:36:47.468Z,82.30
2023-01-11T22:39:19.434Z,82.30
2023-01-11T22:41:48.249Z,82.50
2023-01-11T22:44:17.280Z,82.50
2023-01-11T22:46:46.169Z,82.30
2023-01-11T22:49:15.149Z,82.20
2023-01-11T22:51:44.807Z,82.20
2023-01-11T22:54:13.447Z,82.30
2023-01-11T23:00:25.749Z,82.10
2023-01-11T23:02:54.257Z,82.30
2023-01-11T23:05:22.326Z,82.30
2023-01-11T23:07:50.884Z,82.30
2023-01-11T23:10:19.623Z,82.30
2023-01-11T23:13:05.475Z,82.40
2023-01-11T23:15:40.217Z,82.30
2023-01-11T23:18:08.452Z,83.20
2023-01-11T23:20:37.211Z,82.30
2023-01-11T23:23:05.278Z,82.40
2023-01-11T23:25:33.909Z,82.10
2023-01-11T23:28:02.734Z,82.10
2023-01-11T23:30:31.579Z,82.20
2023-01-11T23:33:01.215Z,82.20
2023-01-11T23:35:29.308Z,82.30
2023-01-11T23:37:57.935Z,82.30
2023-01-11T23:40:26.027Z,82.10
2023-01-11T23:42:53.622Z,82.30
2023-01-11T23:45:22.158Z,82.10
2023-01-11T23:47:50.183Z,82.10
2023-01-11T23:50:19.826Z,82.30
2023-01-11T23:52:48.399Z,82.20
2023-01-11T23:55:17.099Z,82.30
2023-01-11T23:58:05.680Z,81.80
